sensor_id;sensor_type;location;lat;lon;timestamp;P1;durP1;ratioP1;P2;durP2;ratioP2
46889;SDS011;32625;51.080;16.970;2023-12-22T00:02:22;12.80;;;5.05;;
46889;SDS011;32625;51.080;16.970;2023-12-22T00:04:52;23.23;;;3.33;;
46889;SDS011;32625;51.080;16.970;2023-12-22T00:07:19;10.23;;;2.92;;
46889;SDS011;32625;51.080;16.970;2023-12-22T00:09:47;14.95;;;4.68;;
46889;SDS011;32625;51.080;16.970;2023-12-22T00:12:14;18.80;;;3.65;;
46889;SDS011;32625;51.080;16.970;2023-12-22T00:14:42;15.25;;;3.55;;
46889;SDS011;32625;51.080;16.970;2023-12-22T00:17:09;18.33;;;3.70;;
46889;SDS011;32625;51.080;16.970;2023-12-22T00:19:37;14.85;;;3.92;;
46889;SDS011;32625;51.080;16.970;2023-12-22T00:22:04;16.63;;;3.70;;
46889;SDS011;32625;51.080;16.970;2023-12-22T00:24:31;20.60;;;4.45;;
46889;SDS011;32625;51.080;16.970;2023-12-22T00:26:59;19.80;;;3.33;;
46889;SDS011;32625;51.080;16.970;2023-12-22T00:29:27;14.55;;;3.22;;
46889;SDS011;32625;51.080;16.970;2023-12-22T00:31:55;12.20;;;2.90;;
46889;SDS011;32625;51.080;16.970;2023-12-22T00:34:22;15.25;;;3.58;;
46889;SDS011;32625;51.080;16.970;2023-12-22T00:36:50;19.45;;;4.00;;
46889;SDS011;32625;51.080;16.970;2023-12-22T00:39:17;12.10;;;3.05;;
46889;SDS011;32625;51.080;16.970;2023-12-22T00:41:45;12.88;;;3.05;;
46889;SDS011;32625;51.080;16.970;2023-12-22T00:44:12;8.93;;;2.58;;
46889;SDS011;32625;51.080;16.970;2023-12-22T00:46:40;11.77;;;3.00;;
46889;SDS011;32625;51.080;16.970;2023-12-22T00:49:07;9.68;;;2.88;;
46889;SDS011;32625;51.080;16.970;2023-12-22T00:51:34;9.02;;;2.95;;
46889;SDS011;32625;51.080;16.970;2023-12-22T00:54:02;10.18;;;2.33;;
46889;SDS011;32625;51.080;16.970;2023-12-22T00:56:29;9.52;;;2.17;;
46889;SDS011;32625;51.080;16.970;2023-12-22T00:58:57;11.20;;;3.03;;
46889;SDS011;32625;51.080;16.970;2023-12-22T01:01:36;10.25;;;2.58;;
46889;SDS011;32625;51.080;16.970;2023-12-22T01:04:04;10.35;;;2.45;;
46889;SDS011;32625;51.080;16.970;2023-12-22T01:06:31;9.88;;;2.60;;
46889;SDS011;32625;51.080;16.970;2023-12-22T01:08:59;10.15;;;3.13;;
46889;SDS011;32625;51.080;16.970;2023-12-22T01:11:26;14.07;;;3.22;;
46889;SDS011;32625;51.080;16.970;2023-12-22T01:13:53;9.07;;;2.90;;
46889;SDS011;32625;51.080;16.970;2023-12-22T01:16:21;14.80;;;2.80;;
46889;SDS011;32625;51.080;16.970;2023-12-22T01:18:50;13.95;;;2.92;;
46889;SDS011;32625;51.080;16.970;2023-12-22T01:21:18;12.80;;;2.72;;
46889;SDS011;32625;51.080;16.970;2023-12-22T01:23:45;13.27;;;2.60;;
46889;SDS011;32625;51.080;16.970;2023-12-22T01:26:12;17.50;;;3.45;;
46889;SDS011;32625;51.080;16.970;2023-12-22T01:28:40;12.60;;;2.85;;
46889;SDS011;32625;51.080;16.970;2023-12-22T01:31:07;12.88;;;3.00;;
46889;SDS011;32625;51.080;16.970;2023-12-22T01:33:35;10.15;;;2.88;;
46889;SDS011;32625;51.080;16.970;2023-12-22T01:36:02;16.73;;;4.57;;
46889;SDS011;32625;51.080;16.970;2023-12-22T01:38:30;19.30;;;3.15;;
46889;SDS011;32625;51.080;16.970;2023-12-22T01:40:57;17.92;;;4.32;;
46889;SDS011;32625;51.080;16.970;2023-12-22T01:43:25;15.23;;;3.28;;
46889;SDS011;32625;51.080;16.970;2023-12-22T01:45:55;12.82;;;3.35;;
46889;SDS011;32625;51.080;16.970;2023-12-22T01:48:26;16.65;;;3.85;;
46889;SDS011;32625;51.080;16.970;2023-12-22T01:50:53;15.75;;;3.38;;
46889;SDS011;32625;51.080;16.970;2023-12-22T01:53:21;15.35;;;2.88;;
46889;SDS011;32625;51.080;16.970;2023-12-22T01:55:50;13.43;;;3.83;;
46889;SDS011;32625;51.080;16.970;2023-12-22T01:58:19;18.10;;;4.18;;
46889;SDS011;32625;51.080;16.970;2023-12-22T02:00:47;17.88;;;4.18;;
46889;SDS011;32625;51.080;16.970;2023-12-22T02:03:14;12.40;;;2.92;;
46889;SDS011;32625;51.080;16.970;2023-12-22T02:05:42;18.55;;;3.47;;
46889;SDS011;32625;51.080;16.970;2023-12-22T02:08:10;11.75;;;2.92;;
46889;SDS011;32625;51.080;16.970;2023-12-22T02:10:38;12.30;;;2.85;;
46889;SDS011;32625;51.080;16.970;2023-12-22T02:13:06;9.27;;;2.53;;
46889;SDS011;32625;51.080;16.970;2023-12-22T02:15:33;11.48;;;2.65;;
46889;SDS011;32625;51.080;16.970;2023-12-22T02:20:31;9.45;;;2.10;;
46889;SDS011;32625;51.080;16.970;2023-12-22T02:22:59;15.38;;;3.60;;
46889;SDS011;32625;51.080;16.970;2023-12-22T02:25:27;10.23;;;2.65;;
46889;SDS011;32625;51.080;16.970;2023-12-22T02:28:01;15.88;;;3.25;;
46889;SDS011;32625;51.080;16.970;2023-12-22T02:33:10;13.65;;;2.53;;
46889;SDS011;32625;51.080;16.970;2023-12-22T02:35:39;8.20;;;2.95;;
46889;SDS011;32625;51.080;16.970;2023-12-22T02:38:08;10.20;;;2.15;;
46889;SDS011;32625;51.080;16.970;2023-12-22T02:40:38;9.13;;;2.47;;
46889;SDS011;32625;51.080;16.970;2023-12-22T02:43:05;6.25;;;1.75;;
46889;SDS011;32625;51.080;16.970;2023-12-22T02:45:33;7.95;;;2.28;;
46889;SDS011;32625;51.080;16.970;2023-12-22T02:48:01;8.85;;;2.28;;
46889;SDS011;32625;51.080;16.970;2023-12-22T02:50:28;10.48;;;2.53;;
46889;SDS011;32625;51.080;16.970;2023-12-22T02:52:55;11.15;;;2.50;;
46889;SDS011;32625;51.080;16.970;2023-12-22T02:55:23;10.32;;;2.70;;
46889;SDS011;32625;51.080;16.970;2023-12-22T02:57:50;5.05;;;1.80;;
46889;SDS011;32625;51.080;16.970;2023-12-22T03:00:18;7.78;;;1.73;;
46889;SDS011;32625;51.080;16.970;2023-12-22T03:02:45;10.55;;;1.98;;
46889;SDS011;32625;51.080;16.970;2023-12-22T03:05:13;7.20;;;1.60;;
46889;SDS011;32625;51.080;16.970;2023-12-22T03:07:40;9.25;;;2.05;;
46889;SDS011;32625;51.080;16.970;2023-12-22T03:10:08;9.65;;;1.88;;
46889;SDS011;32625;51.080;16.970;2023-12-22T03:12:35;10.88;;;2.13;;
46889;SDS011;32625;51.080;16.970;2023-12-22T03:15:03;11.90;;;2.13;;
46889;SDS011;32625;51.080;16.970;2023-12-22T03:17:30;7.30;;;2.20;;
46889;SDS011;32625;51.080;16.970;2023-12-22T03:19:58;5.70;;;1.60;;
46889;SDS011;32625;51.080;16.970;2023-12-22T03:22:25;9.23;;;2.05;;
46889;SDS011;32625;51.080;16.970;2023-12-22T03:24:53;3.10;;;1.25;;
46889;SDS011;32625;51.080;16.970;2023-12-22T03:27:20;4.82;;;1.52;;
46889;SDS011;32625;51.080;16.970;2023-12-22T03:29:48;5.93;;;1.65;;
46889;SDS011;32625;51.080;16.970;2023-12-22T03:32:15;4.28;;;1.20;;
46889;SDS011;32625;51.080;16.970;2023-12-22T03:34:42;3.72;;;1.10;;
46889;SDS011;32625;51.080;16.970;2023-12-22T03:37:10;4.05;;;1.30;;
46889;SDS011;32625;51.080;16.970;2023-12-22T03:39:37;5.43;;;1.20;;
46889;SDS011;32625;51.080;16.970;2023-12-22T03:42:05;4.35;;;1.25;;
46889;SDS011;32625;51.080;16.970;2023-12-22T03:44:32;5.18;;;1.27;;
46889;SDS011;32625;51.080;16.970;2023-12-22T03:46:59;4.47;;;1.25;;
46889;SDS011;32625;51.080;16.970;2023-12-22T03:49:27;7.75;;;1.92;;
46889;SDS011;32625;51.080;16.970;2023-12-22T03:51:54;4.55;;;1.77;;
46889;SDS011;32625;51.080;16.970;2023-12-22T03:54:21;5.03;;;1.38;;
46889;SDS011;32625;51.080;16.970;2023-12-22T03:56:49;9.93;;;2.13;;
46889;SDS011;32625;51.080;16.970;2023-12-22T03:59:17;5.97;;;1.58;;
46889;SDS011;32625;51.080;16.970;2023-12-22T04:01:50;3.85;;;1.38;;
46889;SDS011;32625;51.080;16.970;2023-12-22T04:04:19;5.55;;;1.58;;
46889;SDS011;32625;51.080;16.970;2023-12-22T04:06:49;4.03;;;1.73;;
46889;SDS011;32625;51.080;16.970;2023-12-22T04:09:16;8.25;;;1.95;;
46889;SDS011;32625;51.080;16.970;2023-12-22T04:11:44;7.35;;;2.22;;
46889;SDS011;32625;51.080;16.970;2023-12-22T04:14:11;9.65;;;2.25;;
46889;SDS011;32625;51.080;16.970;2023-12-22T04:16:38;10.05;;;3.85;;
46889;SDS011;32625;51.080;16.970;2023-12-22T04:19:06;11.35;;;2.10;;
46889;SDS011;32625;51.080;16.970;2023-12-22T04:21:37;12.75;;;2.63;;
46889;SDS011;32625;51.080;16.970;2023-12-22T04:24:05;15.65;;;3.47;;
46889;SDS011;32625;51.080;16.970;2023-12-22T04:26:32;13.32;;;2.75;;
46889;SDS011;32625;51.080;16.970;2023-12-22T04:28:59;8.88;;;2.65;;
46889;SDS011;32625;51.080;16.970;2023-12-22T04:31:27;15.20;;;3.25;;
46889;SDS011;32625;51.080;16.970;2023-12-22T04:33:54;9.43;;;2.38;;
46889;SDS011;32625;51.080;16.970;2023-12-22T04:36:22;12.18;;;3.25;;
46889;SDS011;32625;51.080;16.970;2023-12-22T04:38:49;7.38;;;2.05;;
46889;SDS011;32625;51.080;16.970;2023-12-22T04:41:17;11.40;;;2.35;;
46889;SDS011;32625;51.080;16.970;2023-12-22T04:43:44;10.20;;;2.72;;
46889;SDS011;32625;51.080;16.970;2023-12-22T04:46:11;10.30;;;2.55;;
46889;SDS011;32625;51.080;16.970;2023-12-22T04:48:39;8.20;;;2.00;;
46889;SDS011;32625;51.080;16.970;2023-12-22T04:51:07;14.75;;;3.40;;
46889;SDS011;32625;51.080;16.970;2023-12-22T04:53:34;10.98;;;2.90;;
46889;SDS011;32625;51.080;16.970;2023-12-22T04:56:02;10.45;;;2.47;;
46889;SDS011;32625;51.080;16.970;2023-12-22T04:58:29;11.70;;;2.60;;
46889;SDS011;32625;51.080;16.970;2023-12-22T05:00:57;13.32;;;2.67;;
46889;SDS011;32625;51.080;16.970;2023-12-22T05:03:25;12.45;;;2.20;;
46889;SDS011;32625;51.080;16.970;2023-12-22T05:05:53;14.20;;;2.50;;
46889;SDS011;32625;51.080;16.970;2023-12-22T05:08:20;13.35;;;2.50;;
46889;SDS011;32625;51.080;16.970;2023-12-22T05:10:48;11.85;;;2.65;;
46889;SDS011;32625;51.080;16.970;2023-12-22T05:13:15;10.52;;;2.45;;
46889;SDS011;32625;51.080;16.970;2023-12-22T05:15:43;18.05;;;3.03;;
46889;SDS011;32625;51.080;16.970;2023-12-22T05:18:10;7.97;;;2.75;;
46889;SDS011;32625;51.080;16.970;2023-12-22T05:20:37;12.55;;;3.03;;
46889;SDS011;32625;51.080;16.970;2023-12-22T05:23:05;10.02;;;3.03;;
46889;SDS011;32625;51.080;16.970;2023-12-22T05:25:32;9.52;;;2.60;;
46889;SDS011;32625;51.080;16.970;2023-12-22T05:28:00;7.45;;;2.63;;
46889;SDS011;32625;51.080;16.970;2023-12-22T05:30:27;17.10;;;2.67;;
46889;SDS011;32625;51.080;16.970;2023-12-22T05:32:54;7.45;;;2.47;;
46889;SDS011;32625;51.080;16.970;2023-12-22T05:35:22;11.18;;;2.55;;
46889;SDS011;32625;51.080;16.970;2023-12-22T05:37:50;10.23;;;2.75;;
46889;SDS011;32625;51.080;16.970;2023-12-22T05:40:18;8.70;;;2.55;;
46889;SDS011;32625;51.080;16.970;2023-12-22T05:42:45;16.88;;;2.40;;
46889;SDS011;32625;51.080;16.970;2023-12-22T05:45:13;17.33;;;3.70;;
46889;SDS011;32625;51.080;16.970;2023-12-22T05:47:40;11.00;;;2.97;;
46889;SDS011;32625;51.080;16.970;2023-12-22T05:50:08;12.30;;;2.75;;
46889;SDS011;32625;51.080;16.970;2023-12-22T05:52:37;12.23;;;2.97;;
46889;SDS011;32625;51.080;16.970;2023-12-22T05:55:05;11.20;;;3.17;;
46889;SDS011;32625;51.080;16.970;2023-12-22T05:57:32;12.95;;;3.47;;
46889;SDS011;32625;51.080;16.970;2023-12-22T06:00:00;12.77;;;2.65;;
46889;SDS011;32625;51.080;16.970;2023-12-22T06:02:30;12.00;;;2.35;;
46889;SDS011;32625;51.080;16.970;2023-12-22T06:04:58;18.92;;;3.38;;
46889;SDS011;32625;51.080;16.970;2023-12-22T06:07:25;13.73;;;2.85;;
46889;SDS011;32625;51.080;16.970;2023-12-22T06:09:53;14.57;;;3.40;;
46889;SDS011;32625;51.080;16.970;2023-12-22T06:12:20;11.77;;;3.03;;
46889;SDS011;32625;51.080;16.970;2023-12-22T06:14:48;10.40;;;2.90;;
46889;SDS011;32625;51.080;16.970;2023-12-22T06:17:15;12.13;;;2.83;;
46889;SDS011;32625;51.080;16.970;2023-12-22T06:19:42;12.05;;;2.63;;
46889;SDS011;32625;51.080;16.970;2023-12-22T06:22:10;10.70;;;2.88;;
46889;SDS011;32625;51.080;16.970;2023-12-22T06:24:37;6.80;;;2.30;;
46889;SDS011;32625;51.080;16.970;2023-12-22T06:27:05;10.70;;;2.58;;
46889;SDS011;32625;51.080;16.970;2023-12-22T06:29:33;10.40;;;2.30;;
46889;SDS011;32625;51.080;16.970;2023-12-22T06:32:00;10.50;;;2.45;;
46889;SDS011;32625;51.080;16.970;2023-12-22T06:34:28;10.63;;;2.75;;
46889;SDS011;32625;51.080;16.970;2023-12-22T06:36:55;11.73;;;2.60;;
46889;SDS011;32625;51.080;16.970;2023-12-22T06:39:23;13.55;;;2.90;;
46889;SDS011;32625;51.080;16.970;2023-12-22T06:41:50;11.27;;;2.45;;
46889;SDS011;32625;51.080;16.970;2023-12-22T06:44:17;11.40;;;2.30;;
46889;SDS011;32625;51.080;16.970;2023-12-22T06:46:45;7.97;;;2.28;;
46889;SDS011;32625;51.080;16.970;2023-12-22T06:49:12;9.57;;;2.60;;
46889;SDS011;32625;51.080;16.970;2023-12-22T06:51:41;7.38;;;2.50;;
46889;SDS011;32625;51.080;16.970;2023-12-22T06:54:08;7.50;;;2.20;;
46889;SDS011;32625;51.080;16.970;2023-12-22T06:56:39;8.68;;;1.85;;
46889;SDS011;32625;51.080;16.970;2023-12-22T06:59:06;7.20;;;2.15;;
46889;SDS011;32625;51.080;16.970;2023-12-22T07:01:34;8.32;;;2.05;;
46889;SDS011;32625;51.080;16.970;2023-12-22T07:04:03;4.68;;;1.58;;
46889;SDS011;32625;51.080;16.970;2023-12-22T07:06:31;5.63;;;1.70;;
46889;SDS011;32625;51.080;16.970;2023-12-22T07:11:43;9.32;;;2.40;;
46889;SDS011;32625;51.080;16.970;2023-12-22T07:14:12;10.40;;;2.40;;
46889;SDS011;32625;51.080;16.970;2023-12-22T07:16:39;6.90;;;1.98;;
46889;SDS011;32625;51.080;16.970;2023-12-22T07:19:07;9.13;;;1.88;;
46889;SDS011;32625;51.080;16.970;2023-12-22T07:21:34;7.28;;;2.30;;
46889;SDS011;32625;51.080;16.970;2023-12-22T07:24:02;7.20;;;1.80;;
46889;SDS011;32625;51.080;16.970;2023-12-22T07:26:29;4.88;;;1.90;;
46889;SDS011;32625;51.080;16.970;2023-12-22T07:28:56;7.80;;;1.95;;
46889;SDS011;32625;51.080;16.970;2023-12-22T07:31:25;6.95;;;2.55;;
46889;SDS011;32625;51.080;16.970;2023-12-22T07:33:54;6.40;;;1.98;;
46889;SDS011;32625;51.080;16.970;2023-12-22T07:36:21;7.35;;;1.90;;
46889;SDS011;32625;51.080;16.970;2023-12-22T07:38:48;4.82;;;1.70;;
46889;SDS011;32625;51.080;16.970;2023-12-22T07:41:16;3.85;;;1.65;;
46889;SDS011;32625;51.080;16.970;2023-12-22T07:43:45;9.07;;;1.63;;
46889;SDS011;32625;51.080;16.970;2023-12-22T07:46:17;5.65;;;1.60;;
46889;SDS011;32625;51.080;16.970;2023-12-22T07:48:45;5.97;;;2.00;;
46889;SDS011;32625;51.080;16.970;2023-12-22T07:51:13;8.93;;;2.33;;
46889;SDS011;32625;51.080;16.970;2023-12-22T07:53:40;6.93;;;1.85;;
46889;SDS011;32625;51.080;16.970;2023-12-22T07:56:08;10.15;;;2.20;;
46889;SDS011;32625;51.080;16.970;2023-12-22T07:58:38;4.57;;;1.98;;
46889;SDS011;32625;51.080;16.970;2023-12-22T08:01:06;9.60;;;1.90;;
46889;SDS011;32625;51.080;16.970;2023-12-22T08:03:33;8.10;;;1.83;;
46889;SDS011;32625;51.080;16.970;2023-12-22T08:06:01;10.35;;;2.40;;
46889;SDS011;32625;51.080;16.970;2023-12-22T08:08:28;8.82;;;2.20;;
46889;SDS011;32625;51.080;16.970;2023-12-22T08:10:56;8.65;;;2.20;;
46889;SDS011;32625;51.080;16.970;2023-12-22T08:13:24;9.38;;;2.20;;
46889;SDS011;32625;51.080;16.970;2023-12-22T08:15:51;6.90;;;2.20;;
46889;SDS011;32625;51.080;16.970;2023-12-22T08:18:19;8.00;;;2.38;;
46889;SDS011;32625;51.080;16.970;2023-12-22T08:20:47;8.20;;;2.00;;
46889;SDS011;32625;51.080;16.970;2023-12-22T08:23:17;9.98;;;2.38;;
46889;SDS011;32625;51.080;16.970;2023-12-22T08:25:45;8.18;;;2.42;;
46889;SDS011;32625;51.080;16.970;2023-12-22T08:28:13;12.63;;;2.58;;
46889;SDS011;32625;51.080;16.970;2023-12-22T08:30:40;6.15;;;2.22;;
46889;SDS011;32625;51.080;16.970;2023-12-22T08:33:08;8.50;;;2.25;;
46889;SDS011;32625;51.080;16.970;2023-12-22T08:35:36;8.85;;;2.10;;
46889;SDS011;32625;51.080;16.970;2023-12-22T08:38:03;11.00;;;2.05;;
46889;SDS011;32625;51.080;16.970;2023-12-22T08:40:31;6.53;;;1.80;;
46889;SDS011;32625;51.080;16.970;2023-12-22T08:42:59;8.23;;;2.40;;
46889;SDS011;32625;51.080;16.970;2023-12-22T08:45:27;7.18;;;1.90;;
46889;SDS011;32625;51.080;16.970;2023-12-22T08:47:55;7.50;;;1.85;;
46889;SDS011;32625;51.080;16.970;2023-12-22T08:50:23;6.60;;;2.00;;
46889;SDS011;32625;51.080;16.970;2023-12-22T08:52:50;4.10;;;1.88;;
46889;SDS011;32625;51.080;16.970;2023-12-22T08:55:19;7.55;;;1.85;;
46889;SDS011;32625;51.080;16.970;2023-12-22T08:57:46;10.32;;;1.92;;
46889;SDS011;32625;51.080;16.970;2023-12-22T09:00:25;4.72;;;1.52;;
46889;SDS011;32625;51.080;16.970;2023-12-22T09:02:52;4.43;;;1.83;;
46889;SDS011;32625;51.080;16.970;2023-12-22T09:05:20;7.25;;;1.40;;
46889;SDS011;32625;51.080;16.970;2023-12-22T09:07:48;3.83;;;1.25;;
46889;SDS011;32625;51.080;16.970;2023-12-22T09:10:16;4.50;;;1.20;;
46889;SDS011;32625;51.080;16.970;2023-12-22T09:12:44;4.35;;;1.52;;
46889;SDS011;32625;51.080;16.970;2023-12-22T09:15:11;8.63;;;1.38;;
46889;SDS011;32625;51.080;16.970;2023-12-22T09:17:39;1.65;;;0.90;;
46889;SDS011;32625;51.080;16.970;2023-12-22T09:20:11;2.90;;;1.17;;
46889;SDS011;32625;51.080;16.970;2023-12-22T09:22:39;3.88;;;1.10;;
46889;SDS011;32625;51.080;16.970;2023-12-22T09:25:06;2.85;;;1.30;;
46889;SDS011;32625;51.080;16.970;2023-12-22T09:27:35;3.25;;;1.13;;
46889;SDS011;32625;51.080;16.970;2023-12-22T09:30:03;4.47;;;1.35;;
46889;SDS011;32625;51.080;16.970;2023-12-22T09:32:33;3.63;;;1.50;;
46889;SDS011;32625;51.080;16.970;2023-12-22T09:35:01;4.13;;;1.70;;
46889;SDS011;32625;51.080;16.970;2023-12-22T09:37:29;3.75;;;1.50;;
46889;SDS011;32625;51.080;16.970;2023-12-22T09:39:57;2.90;;;1.27;;
46889;SDS011;32625;51.080;16.970;2023-12-22T09:42:24;6.07;;;1.95;;
46889;SDS011;32625;51.080;16.970;2023-12-22T09:44:53;4.57;;;2.17;;
46889;SDS011;32625;51.080;16.970;2023-12-22T09:47:20;4.25;;;1.77;;
46889;SDS011;32625;51.080;16.970;2023-12-22T09:49:49;5.75;;;1.90;;
46889;SDS011;32625;51.080;16.970;2023-12-22T09:52:17;4.30;;;1.63;;
46889;SDS011;32625;51.080;16.970;2023-12-22T09:54:45;5.55;;;1.58;;
46889;SDS011;32625;51.080;16.970;2023-12-22T09:57:12;7.40;;;2.20;;
46889;SDS011;32625;51.080;16.970;2023-12-22T09:59:53;9.63;;;2.40;;
46889;SDS011;32625;51.080;16.970;2023-12-22T10:02:20;5.22;;;1.63;;
46889;SDS011;32625;51.080;16.970;2023-12-22T10:04:48;8.20;;;2.10;;
46889;SDS011;32625;51.080;16.970;2023-12-22T10:07:15;5.78;;;1.75;;
46889;SDS011;32625;51.080;16.970;2023-12-22T10:09:44;9.55;;;2.08;;
46889;SDS011;32625;51.080;16.970;2023-12-22T10:12:13;6.32;;;1.95;;
46889;SDS011;32625;51.080;16.970;2023-12-22T10:14:41;7.53;;;3.10;;
46889;SDS011;32625;51.080;16.970;2023-12-22T10:17:08;7.88;;;1.83;;
46889;SDS011;32625;51.080;16.970;2023-12-22T10:19:36;4.72;;;1.77;;
46889;SDS011;32625;51.080;16.970;2023-12-22T10:22:03;7.00;;;2.22;;
46889;SDS011;32625;51.080;16.970;2023-12-22T10:24:41;9.63;;;2.03;;
46889;SDS011;32625;51.080;16.970;2023-12-22T10:27:09;11.75;;;2.45;;
46889;SDS011;32625;51.080;16.970;2023-12-22T10:29:37;9.50;;;2.60;;
46889;SDS011;32625;51.080;16.970;2023-12-22T10:32:05;6.88;;;1.88;;
46889;SDS011;32625;51.080;16.970;2023-12-22T10:34:34;10.38;;;2.58;;
46889;SDS011;32625;51.080;16.970;2023-12-22T10:37:02;5.63;;;2.08;;
46889;SDS011;32625;51.080;16.970;2023-12-22T10:39:29;6.50;;;2.03;;
46889;SDS011;32625;51.080;16.970;2023-12-22T10:41:57;8.00;;;1.98;;
46889;SDS011;32625;51.080;16.970;2023-12-22T10:44:25;9.63;;;1.90;;
46889;SDS011;32625;51.080;16.970;2023-12-22T10:46:53;9.68;;;1.70;;
46889;SDS011;32625;51.080;16.970;2023-12-22T10:49:21;4.50;;;1.50;;
46889;SDS011;32625;51.080;16.970;2023-12-22T10:51:49;4.22;;;1.90;;
46889;SDS011;32625;51.080;16.970;2023-12-22T10:54:18;9.75;;;1.67;;
46889;SDS011;32625;51.080;16.970;2023-12-22T10:56:46;7.47;;;1.60;;
46889;SDS011;32625;51.080;16.970;2023-12-22T10:59:18;17.25;;;2.03;;
46889;SDS011;32625;51.080;16.970;2023-12-22T11:01:45;7.13;;;1.70;;
46889;SDS011;32625;51.080;16.970;2023-12-22T11:04:17;6.53;;;1.65;;
46889;SDS011;32625;51.080;16.970;2023-12-22T11:06:49;5.88;;;1.67;;
46889;SDS011;32625;51.080;16.970;2023-12-22T11:09:17;6.68;;;1.40;;
46889;SDS011;32625;51.080;16.970;2023-12-22T11:11:44;10.02;;;2.65;;
46889;SDS011;32625;51.080;16.970;2023-12-22T11:14:12;8.18;;;1.70;;
46889;SDS011;32625;51.080;16.970;2023-12-22T11:16:40;6.57;;;1.70;;
46889;SDS011;32625;51.080;16.970;2023-12-22T11:19:14;7.25;;;1.75;;
46889;SDS011;32625;51.080;16.970;2023-12-22T11:21:41;5.38;;;2.20;;
46889;SDS011;32625;51.080;16.970;2023-12-22T11:24:09;5.70;;;2.03;;
46889;SDS011;32625;51.080;16.970;2023-12-22T11:26:38;4.90;;;1.75;;
46889;SDS011;32625;51.080;16.970;2023-12-22T11:29:05;5.57;;;1.92;;
46889;SDS011;32625;51.080;16.970;2023-12-22T11:31:33;8.88;;;2.47;;
46889;SDS011;32625;51.080;16.970;2023-12-22T11:34:01;6.38;;;1.90;;
46889;SDS011;32625;51.080;16.970;2023-12-22T11:36:37;8.77;;;2.10;;
46889;SDS011;32625;51.080;16.970;2023-12-22T11:39:05;9.73;;;2.08;;
46889;SDS011;32625;51.080;16.970;2023-12-22T11:41:33;6.85;;;2.22;;
46889;SDS011;32625;51.080;16.970;2023-12-22T11:44:04;8.10;;;1.77;;
46889;SDS011;32625;51.080;16.970;2023-12-22T11:46:32;9.75;;;2.58;;
46889;SDS011;32625;51.080;16.970;2023-12-22T11:49:00;8.23;;;2.15;;
46889;SDS011;32625;51.080;16.970;2023-12-22T11:51:32;5.05;;;1.60;;
46889;SDS011;32625;51.080;16.970;2023-12-22T11:56:30;8.05;;;1.85;;
46889;SDS011;32625;51.080;16.970;2023-12-22T11:58:58;9.20;;;2.22;;
46889;SDS011;32625;51.080;16.970;2023-12-22T12:01:27;8.85;;;2.20;;
46889;SDS011;32625;51.080;16.970;2023-12-22T12:03:59;10.50;;;1.65;;
46889;SDS011;32625;51.080;16.970;2023-12-22T12:08:56;6.68;;;1.63;;
46889;SDS011;32625;51.080;16.970;2023-12-22T12:11:24;6.90;;;2.03;;
46889;SDS011;32625;51.080;16.970;2023-12-22T12:14:13;7.95;;;1.95;;
46889;SDS011;32625;51.080;16.970;2023-12-22T12:16:41;7.15;;;1.65;;
46889;SDS011;32625;51.080;16.970;2023-12-22T12:19:09;8.02;;;1.63;;
46889;SDS011;32625;51.080;16.970;2023-12-22T12:21:39;6.57;;;2.10;;
46889;SDS011;32625;51.080;16.970;2023-12-22T12:24:07;6.10;;;2.00;;
46889;SDS011;32625;51.080;16.970;2023-12-22T12:26:35;5.53;;;1.83;;
46889;SDS011;32625;51.080;16.970;2023-12-22T12:29:03;8.95;;;2.58;;
46889;SDS011;32625;51.080;16.970;2023-12-22T12:31:37;9.30;;;2.55;;
46889;SDS011;32625;51.080;16.970;2023-12-22T12:34:05;36.85;;;5.07;;
46889;SDS011;32625;51.080;16.970;2023-12-22T12:36:33;13.27;;;3.58;;
46889;SDS011;32625;51.080;16.970;2023-12-22T12:39:06;11.32;;;4.05;;
46889;SDS011;32625;51.080;16.970;2023-12-22T12:41:40;16.10;;;3.97;;
46889;SDS011;32625;51.080;16.970;2023-12-22T12:44:09;8.80;;;2.65;;
46889;SDS011;32625;51.080;16.970;2023-12-22T12:46:38;10.73;;;3.30;;
46889;SDS011;32625;51.080;16.970;2023-12-22T12:49:06;8.25;;;1.92;;
46889;SDS011;32625;51.080;16.970;2023-12-22T12:51:35;8.27;;;2.13;;
46889;SDS011;32625;51.080;16.970;2023-12-22T12:54:04;9.50;;;1.95;;
46889;SDS011;32625;51.080;16.970;2023-12-22T12:56:39;8.48;;;2.20;;
46889;SDS011;32625;51.080;16.970;2023-12-22T13:01:37;8.35;;;1.98;;
46889;SDS011;32625;51.080;16.970;2023-12-22T13:04:05;7.53;;;1.92;;
46889;SDS011;32625;51.080;16.970;2023-12-22T13:06:33;9.77;;;3.40;;
46889;SDS011;32625;51.080;16.970;2023-12-22T13:09:00;7.60;;;1.92;;
46889;SDS011;32625;51.080;16.970;2023-12-22T13:11:31;11.80;;;2.33;;
46889;SDS011;32625;51.080;16.970;2023-12-22T13:14:01;10.50;;;2.23;;
46889;SDS011;32625;51.080;16.970;2023-12-22T13:16:29;9.57;;;2.40;;
46889;SDS011;32625;51.080;16.970;2023-12-22T13:18:57;8.30;;;1.90;;
46889;SDS011;32625;51.080;16.970;2023-12-22T13:21:24;9.38;;;2.10;;
46889;SDS011;32625;51.080;16.970;2023-12-22T13:26:59;10.32;;;2.00;;
46889;SDS011;32625;51.080;16.970;2023-12-22T13:29:28;12.50;;;3.30;;
46889;SDS011;32625;51.080;16.970;2023-12-22T13:31:55;8.10;;;2.05;;
46889;SDS011;32625;51.080;16.970;2023-12-22T13:34:24;5.90;;;2.10;;
46889;SDS011;32625;51.080;16.970;2023-12-22T13:36:52;13.05;;;2.20;;
46889;SDS011;32625;51.080;16.970;2023-12-22T13:39:19;11.18;;;2.22;;
46889;SDS011;32625;51.080;16.970;2023-12-22T13:41:47;11.35;;;2.55;;
46889;SDS011;32625;51.080;16.970;2023-12-22T13:44:14;9.50;;;2.83;;
46889;SDS011;32625;51.080;16.970;2023-12-22T13:46:42;9.02;;;2.25;;
46889;SDS011;32625;51.080;16.970;2023-12-22T13:49:09;10.88;;;2.30;;
46889;SDS011;32625;51.080;16.970;2023-12-22T13:51:40;8.65;;;2.40;;
46889;SDS011;32625;51.080;16.970;2023-12-22T13:54:08;9.27;;;2.20;;
46889;SDS011;32625;51.080;16.970;2023-12-22T13:56:36;11.55;;;3.08;;
46889;SDS011;32625;51.080;16.970;2023-12-22T13:59:06;8.00;;;1.88;;
46889;SDS011;32625;51.080;16.970;2023-12-22T14:01:33;11.40;;;3.13;;
46889;SDS011;32625;51.080;16.970;2023-12-22T14:04:01;11.98;;;2.20;;
46889;SDS011;32625;51.080;16.970;2023-12-22T14:06:29;12.27;;;2.78;;
46889;SDS011;32625;51.080;16.970;2023-12-22T14:08:56;10.52;;;1.80;;
46889;SDS011;32625;51.080;16.970;2023-12-22T14:11:24;8.85;;;2.15;;
46889;SDS011;32625;51.080;16.970;2023-12-22T14:13:54;7.50;;;2.30;;
46889;SDS011;32625;51.080;16.970;2023-12-22T14:16:21;8.25;;;2.08;;
46889;SDS011;32625;51.080;16.970;2023-12-22T14:18:48;11.55;;;2.17;;
46889;SDS011;32625;51.080;16.970;2023-12-22T14:21:16;7.25;;;2.13;;
46889;SDS011;32625;51.080;16.970;2023-12-22T14:23:44;10.57;;;2.95;;
46889;SDS011;32625;51.080;16.970;2023-12-22T14:26:11;10.27;;;3.08;;
46889;SDS011;32625;51.080;16.970;2023-12-22T14:28:38;10.98;;;2.30;;
46889;SDS011;32625;51.080;16.970;2023-12-22T14:31:06;6.72;;;2.20;;
46889;SDS011;32625;51.080;16.970;2023-12-22T14:33:33;6.45;;;1.77;;
46889;SDS011;32625;51.080;16.970;2023-12-22T14:36:01;10.77;;;2.35;;
46889;SDS011;32625;51.080;16.970;2023-12-22T14:38:28;8.07;;;2.30;;
46889;SDS011;32625;51.080;16.970;2023-12-22T14:40:56;8.27;;;2.13;;
46889;SDS011;32625;51.080;16.970;2023-12-22T14:43:23;12.40;;;2.10;;
46889;SDS011;32625;51.080;16.970;2023-12-22T14:45:51;7.68;;;2.08;;
46889;SDS011;32625;51.080;16.970;2023-12-22T14:48:18;6.30;;;1.83;;
46889;SDS011;32625;51.080;16.970;2023-12-22T14:50:46;6.88;;;1.88;;
46889;SDS011;32625;51.080;16.970;2023-12-22T14:53:13;10.52;;;2.42;;